createdAt,value
2023-03-29T00:00:49.127Z,100870.73
2023-03-29T00:03:17.661Z,100867.23
2023-03-29T00:05:44.167Z,100867.58
2023-03-29T00:08:13.788Z,100873.41
2023-03-29T00:10:41.192Z,100876.73
2023-03-29T00:13:07.572Z,100876.71
2023-03-29T00:15:33.899Z,100876.62
2023-03-29T00:18:00.708Z,100877.71
2023-03-29T00:20:28.364Z,100880.86
2023-03-29T00:22:55.244Z,100877.36
2023-03-29T00:25:22.097Z,100878.38
2023-03-29T00:27:48.737Z,100879.48
2023-03-29T00:30:15.879Z,100880.13
2023-03-29T00:32:43.151Z,100880.39
2023-03-29T00:35:10.418Z,100882.24
2023-03-29T00:37:37.702Z,100879.58
2023-03-29T00:40:12.155Z,100879.83
2023-03-29T00:42:38.659Z,100881.17
2023-03-29T00:45:11.333Z,100876.98
2023-03-29T00:47:42.222Z,100877.77
2023-03-29T00:50:17.851Z,100874.02
2023-03-29T00:52:51.916Z,100876.59
2023-03-29T00:55:22.379Z,100874.96
2023-03-29T00:57:53.032Z,100876.12
2023-03-29T01:00:23.754Z,100875.50
2023-03-29T01:02:55.186Z,100873.30
2023-03-29T01:05:30.299Z,100873.63
2023-03-29T01:08:10.484Z,100870.24
2023-03-29T01:11:42.070Z,100870.36
2023-03-29T01:14:17.949Z,100867.56
2023-03-29T01:16:45.457Z,100873.85
2023-03-29T01:19:18.299Z,100876.13
2023-03-29T01:21:52.916Z,100874.13
2023-03-29T01:24:52.005Z,100872.00
2023-03-29T01:27:55.889Z,100874.95
2023-03-29T01:30:31.254Z,100872.60
2023-03-29T01:33:20.490Z,100870.58
2023-03-29T01:36:04.478Z,100874.58
2023-03-29T01:38:41.299Z,100874.21
2023-03-29T01:41:08.047Z,100876.90
2023-03-29T01:43:57.498Z,100875.10
2023-03-29T01:46:37.039Z,100876.41
2023-03-29T01:49:33.596Z,100884.90
2023-03-29T01:52:23.700Z,100879.70
2023-03-29T01:54:59.757Z,100883.67
2023-03-29T01:57:27.049Z,100882.34
2023-03-29T01:59:57.014Z,100879.18
2023-03-29T02:02:27.104Z,100881.55
2023-03-29T02:04:57.041Z,100878.80
2023-03-29T02:07:29.870Z,100877.98
2023-03-29T02:09:58.275Z,100880.61
2023-03-29T02:12:24.999Z,100884.57
2023-03-29T02:14:51.424Z,100880.14
2023-03-29T02:17:20.867Z,100881.75
2023-03-29T02:19:51.325Z,100879.65
2023-03-29T02:22:23.773Z,100885.26
2023-03-29T02:24:54.017Z,100887.63
2023-03-29T02:27:20.700Z,100890.14
2023-03-29T02:29:47.263Z,100891.21
2023-03-29T02:32:50.061Z,100889.25
2023-03-29T02:35:22.690Z,100888.96
2023-03-29T02:37:53.826Z,100888.62
2023-03-29T02:40:22.885Z,100890.73
2023-03-29T02:42:49.777Z,100893.10
2023-03-29T02:45:18.019Z,100894.71
2023-03-29T02:47:49.362Z,100895.52
2023-03-29T02:50:15.973Z,100894.88
2023-03-29T02:52:52.437Z,100897.02
2023-03-29T02:55:22.599Z,100899.84
2023-03-29T02:57:49.142Z,100895.84
2023-03-29T03:00:18.060Z,100895.60
2023-03-29T03:02:45.417Z,100895.84
2023-03-29T03:05:11.867Z,100895.45
2023-03-29T03:07:39.958Z,100890.61
2023-03-29T03:10:09.459Z,100891.25
2023-03-29T03:12:36.936Z,100890.19
2023-03-29T03:15:05.138Z,100893.46
2023-03-29T03:17:32.757Z,100893.60
2023-03-29T03:19:59.421Z,100893.59
2023-03-29T03:22:26.163Z,100898.07
2023-03-29T03:24:52.650Z,100901.08
2023-03-29T03:27:19.003Z,100903.29
2023-03-29T03:29:45.644Z,100905.04
2023-03-29T03:32:12.916Z,100907.89
2023-03-29T03:35:17.423Z,100911.70
2023-03-29T03:37:44.165Z,100910.95
2023-03-29T03:40:11.429Z,100913.98
2023-03-29T03:42:39.473Z,100910.75
2023-03-29T03:45:08.096Z,100912.23
2023-03-29T03:47:46.631Z,100910.66
2023-03-29T03:50:21.367Z,100909.80
2023-03-29T03:52:48.113Z,100911.91
2023-03-29T03:55:14.783Z,100916.56
2023-03-29T03:57:47.232Z,100916.80
2023-03-29T04:00:21.046Z,100919.52
2023-03-29T04:02:53.939Z,100917.59
2023-03-29T04:05:20.523Z,100914.38
2023-03-29T04:07:46.957Z,100920.53
2023-03-29T04:10:41.054Z,100919.39
2023-03-29T04:13:12.838Z,100920.45
2023-03-29T04:16:01.715Z,100925.10
2023-03-29T04:18:29.166Z,100925.63
2023-03-29T04:20:58.220Z,100925.44
2023-03-29T04:23:24.973Z,100929.55
2023-03-29T04:25:55.518Z,100930.70
2023-03-29T04:28:41.123Z,100928.41
2023-03-29T04:31:18.113Z,100927.67
2023-03-29T04:33:51.209Z,100928.92
2023-03-29T04:36:17.757Z,100928.29
2023-03-29T04:38:47.440Z,100927.48
2023-03-29T04:41:15.533Z,100930.46
2023-03-29T04:44:02.076Z,100929.02
2023-03-29T04:46:29.958Z,100933.66
2023-03-29T04:49:15.952Z,100937.69
2023-03-29T04:51:45.149Z,100943.34
2023-03-29T04:54:11.708Z,100941.58
2023-03-29T04:56:58.583Z,100941.42
2023-03-29T04:59:37.101Z,100938.19
2023-03-29T05:02:11.649Z,100939.48
2023-03-29T05:04:41.213Z,100937.95
2023-03-29T05:07:15.020Z,100938.93
2023-03-29T05:09:41.933Z,100936.73
2023-03-29T05:12:09.382Z,100938.20
2023-03-29T05:14:46.500Z,100946.90
2023-03-29T05:17:13.200Z,100940.44
2023-03-29T05:19:40.648Z,100941.76
2023-03-29T05:22:08.339Z,100945.23
2023-03-29T05:24:35.471Z,100945.14
2023-03-29T05:27:09.309Z,100941.35
2023-03-29T05:29:36.012Z,100942.80
2023-03-29T05:32:37.765Z,100945.42
2023-03-29T05:35:04.946Z,100943.26
2023-03-29T05:37:33.723Z,100943.95
2023-03-29T05:40:05.921Z,100946.89
2023-03-29T05:42:33.547Z,100945.92
2023-03-29T05:45:06.757Z,100945.14
2023-03-29T05:47:33.315Z,100943.61
2023-03-29T05:50:00.162Z,100945.29
2023-03-29T05:52:26.854Z,100949.14
2023-03-29T05:54:53.209Z,100954.67
2023-03-29T05:57:21.396Z,100951.39
2023-03-29T05:59:47.893Z,100956.62
2023-03-29T06:02:15.320Z,100954.70
2023-03-29T06:04:46.115Z,100953.18
2023-03-29T06:07:15.930Z,100953.98
2023-03-29T06:09:45.000Z,100955.55
2023-03-29T06:12:11.675Z,100960.30
2023-03-29T06:15:04.765Z,100959.91
2023-03-29T06:17:37.467Z,100961.11
2023-03-29T06:20:09.922Z,100953.66
2023-03-29T06:22:38.528Z,100951.55
2023-03-29T06:25:06.697Z,100954.77
2023-03-29T06:27:33.501Z,100954.91
2023-03-29T06:30:00.591Z,100954.91
2023-03-29T06:32:27.356Z,100951.77
2023-03-29T06:34:58.390Z,100959.03
2023-03-29T06:37:31.279Z,100955.44
2023-03-29T06:40:06.289Z,100956.23
2023-03-29T06:42:41.311Z,100961.36
2023-03-29T06:45:35.667Z,100962.86
2023-03-29T06:48:05.835Z,100968.20
2023-03-29T06:50:33.452Z,100968.04
2023-03-29T06:53:29.088Z,100965.37
2023-03-29T06:56:08.304Z,100968.74
2023-03-29T06:58:40.277Z,100970.63
2023-03-29T07:01:24.863Z,100972.33
2023-03-29T07:03:57.949Z,100976.19
2023-03-29T07:06:30.555Z,100973.90
2023-03-29T07:08:59.196Z,100973.45
2023-03-29T07:11:49.777Z,100980.23
2023-03-29T07:14:22.100Z,100980.11
2023-03-29T07:16:49.025Z,100979.09
2023-03-29T07:19:44.526Z,100974.45
2023-03-29T07:22:25.091Z,100975.65
2023-03-29T07:24:55.193Z,100976.25
2023-03-29T07:27:22.137Z,100978.25
2023-03-29T07:29:49.431Z,100977.02
2023-03-29T07:32:16.742Z,100975.00
2023-03-29T07:34:43.313Z,100971.64
2023-03-29T07:37:16.196Z,100969.05
2023-03-29T07:39:43.989Z,100969.61
2023-03-29T07:42:36.527Z,100968.08
2023-03-29T07:45:05.258Z,100969.35
2023-03-29T07:47:35.316Z,100969.98
2023-03-29T07:50:04.096Z,100975.86
2023-03-29T07:52:30.936Z,100965.70
2023-03-29T07:54:57.899Z,100960.05
2023-03-29T07:57:32.074Z,100954.73
2023-03-29T07:59:59.311Z,100951.16
2023-03-29T08:02:28.477Z,100955.95
2023-03-29T08:04:56.756Z,100951.05
2023-03-29T08:07:45.392Z,100947.59
2023-03-29T08:10:21.596Z,100946.48
2023-03-29T08:13:17.276Z,100947.63
2023-03-29T08:16:09.791Z,100943.19
2023-03-29T08:18:40.378Z,100941.52
2023-03-29T08:21:07.682Z,100942.84
2023-03-29T08:23:34.224Z,100941.29
2023-03-29T08:26:09.040Z,100939.64
2023-03-29T08:28:36.409Z,100939.83
2023-03-29T08:31:03.097Z,100934.48
2023-03-29T08:33:29.993Z,100930.89
2023-03-29T08:36:11.730Z,100929.20
2023-03-29T08:38:38.640Z,100930.23
2023-03-29T08:41:30.673Z,100930.95
2023-03-29T08:43:57.397Z,100925.01
2023-03-29T08:46:35.703Z,100922.56
2023-03-29T08:49:16.037Z,100921.09
2023-03-29T08:51:47.213Z,100919.05
2023-03-29T08:54:19.807Z,100921.66
2023-03-29T08:57:18.802Z,100918.00
2023-03-29T08:59:54.755Z,100918.95
2023-03-29T09:02:27.402Z,100920.84
2023-03-29T09:05:33.122Z,100914.04
2023-03-29T09:08:16.856Z,100913.20
2023-03-29T09:10:47.909Z,100912.80
2023-03-29T09:13:47.725Z,100914.89
2023-03-29T09:16:38.028Z,100917.52
2023-03-29T09:19:43.617Z,100909.96
2023-03-29T09:22:47.633Z,100907.41
2023-03-29T09:25:14.062Z,100903.88
2023-03-29T09:28:11.717Z,100900.41
2023-03-29T09:30:55.967Z,100900.98
2023-03-29T09:33:28.077Z,100896.94
2023-03-29T09:36:11.101Z,100891.95
2023-03-29T09:38:41.952Z,100893.46
2023-03-29T09:41:15.397Z,100889.52
2023-03-29T09:43:43.666Z,100885.30
2023-03-29T09:46:23.151Z,100878.03
2023-03-29T09:48:51.175Z,100873.89
2023-03-29T09:51:21.197Z,100871.35
2023-03-29T09:53:48.331Z,100873.86
2023-03-29T09:56:53.514Z,100869.52
2023-03-29T09:59:21.122Z,100865.42
2023-03-29T10:01:47.734Z,100866.67
2023-03-29T10:04:16.223Z,100868.81
2023-03-29T10:06:51.666Z,100864.96
2023-03-29T10:09:26.443Z,100862.16
2023-03-29T10:12:01.771Z,100864.11
2023-03-29T10:14:42.802Z,100863.22
2023-03-29T10:17:25.967Z,100862.95
2023-03-29T10:19:57.272Z,100862.39
2023-03-29T10:22:27.075Z,100857.80
2023-03-29T10:24:56.511Z,100856.09
2023-03-29T10:27:31.550Z,100856.65
2023-03-29T10:29:59.601Z,100855.83
2023-03-29T10:32:37.049Z,100854.70
2023-03-29T10:35:14.244Z,100856.77
2023-03-29T10:37:42.956Z,100853.98
2023-03-29T10:40:21.387Z,100861.77
2023-03-29T10:42:50.488Z,100859.71
2023-03-29T10:45:34.180Z,100856.80
2023-03-29T10:48:03.435Z,100850.00
2023-03-29T10:50:37.420Z,100847.77
2023-03-29T10:53:13.796Z,100843.48
2023-03-29T10:55:52.590Z,100843.98
2023-03-29T10:58:37.173Z,100837.67
2023-03-29T11:01:04.912Z,100838.30
2023-03-29T11:03:55.421Z,100839.16
2023-03-29T11:06:21.910Z,100825.94
2023-03-29T11:08:56.703Z,100826.27
2023-03-29T11:11:43.733Z,100819.77
2023-03-29T11:14:25.330Z,100817.30
2023-03-29T11:17:00.914Z,100812.02
2023-03-29T11:19:32.989Z,100803.64
2023-03-29T11:22:18.901Z,100805.33
2023-03-29T11:25:06.097Z,100812.02
2023-03-29T11:27:32.496Z,100809.59
2023-03-29T11:30:13.129Z,100812.33
2023-03-29T11:32:42.563Z,100810.52
2023-03-29T11:35:31.637Z,100795.55
2023-03-29T11:38:26.145Z,100795.34
2023-03-29T11:40:58.746Z,100790.13
2023-03-29T11:43:39.914Z,100777.55
2023-03-29T11:46:13.999Z,100778.77
2023-03-29T11:48:49.639Z,100779.85
2023-03-29T11:51:32.145Z,100780.58
2023-03-29T11:54:03.829Z,100774.45
2023-03-29T11:56:43.947Z,100771.67
2023-03-29T11:59:22.348Z,100764.80
2023-03-29T12:01:53.853Z,100763.01
2023-03-29T12:04:29.252Z,100762.66
2023-03-29T12:07:10.664Z,100751.98
2023-03-29T12:09:54.989Z,100756.07
2023-03-29T12:12:56.889Z,100748.84
2023-03-29T12:15:26.883Z,100745.91
2023-03-29T12:18:22.226Z,100744.21
2023-03-29T12:20:56.867Z,100738.20
2023-03-29T12:23:24.880Z,100739.58
2023-03-29T12:25:51.564Z,100738.66
2023-03-29T12:28:36.355Z,100737.80
2023-03-29T12:31:05.715Z,100733.08
2023-03-29T12:33:50.800Z,100727.45
2023-03-29T12:36:55.077Z,100731.12
2023-03-29T12:39:53.956Z,100728.27
2023-03-29T12:43:06.469Z,100729.85
2023-03-29T12:45:54.894Z,100724.62
2023-03-29T12:48:26.494Z,100728.48
2023-03-29T12:51:00.434Z,100722.08
2023-03-29T12:53:33.949Z,100722.84
2023-03-29T12:56:00.400Z,100727.63
2023-03-29T12:58:39.690Z,100718.84
2023-03-29T13:01:29.867Z,100719.80
2023-03-29T13:04:13.453Z,100716.88
2023-03-29T13:06:45.989Z,100712.87
2023-03-29T13:09:29.028Z,100712.33
2023-03-29T13:12:24.071Z,100712.27
2023-03-29T13:15:06.070Z,100710.95
2023-03-29T13:18:12.275Z,100711.40
2023-03-29T13:20:47.294Z,100716.23
2023-03-29T13:23:16.183Z,100708.23
2023-03-29T13:25:58.923Z,100702.05
2023-03-29T13:28:28.325Z,100697.36
2023-03-29T13:30:54.854Z,100690.88
2023-03-29T13:33:21.505Z,100696.94
2023-03-29T13:36:05.037Z,100695.73
2023-03-29T13:38:32.572Z,100692.30
2023-03-29T13:41:02.916Z,100689.39
2023-03-29T13:43:36.887Z,100681.17
2023-03-29T13:46:06.182Z,100683.38
2023-03-29T13:48:50.601Z,100679.27
2023-03-29T13:51:16.963Z,100678.10
2023-03-29T13:53:51.132Z,100678.02
2023-03-29T13:56:50.421Z,100676.77
2023-03-29T13:59:34.666Z,100667.89
2023-03-29T14:02:03.907Z,100670.21
2023-03-29T14:04:37.136Z,100663.72
2023-03-29T14:07:06.570Z,100665.30
2023-03-29T14:09:35.385Z,100661.40
2023-03-29T14:12:02.038Z,100658.48
2023-03-29T14:14:32.047Z,100658.36
2023-03-29T14:17:00.010Z,100661.55
2023-03-29T14:19:32.282Z,100659.51
2023-03-29T14:22:01.103Z,100651.80
2023-03-29T14:25:52.479Z,100653.83
2023-03-29T14:28:24.453Z,100659.13
2023-03-29T14:30:52.864Z,100650.74
2023-03-29T14:33:29.000Z,100654.02
2023-03-29T14:35:59.524Z,100656.45
2023-03-29T14:38:28.838Z,100653.16
2023-03-29T14:41:01.727Z,100655.30
2023-03-29T14:43:32.207Z,100655.46
2023-03-29T14:46:05.007Z,100654.33
2023-03-29T14:48:33.723Z,100649.60
2023-03-29T14:51:01.957Z,100647.17
2023-03-29T14:53:32.327Z,100640.44
2023-03-29T14:56:02.218Z,100643.72
2023-03-29T14:58:35.528Z,100644.38
2023-03-29T15:01:15.151Z,100638.50
2023-03-29T15:04:11.068Z,100639.91
2023-03-29T15:06:41.666Z,100639.02
2023-03-29T15:09:24.729Z,100636.25
2023-03-29T15:11:58.672Z,100631.21
2023-03-29T15:14:30.420Z,100633.88
2023-03-29T15:17:03.298Z,100634.09
2023-03-29T15:19:32.022Z,100626.54
2023-03-29T15:22:10.114Z,100628.20
2023-03-29T15:24:47.057Z,100626.63
2023-03-29T15:27:18.135Z,100624.60
2023-03-29T15:29:47.387Z,100621.36
2023-03-29T15:32:22.670Z,100615.04
2023-03-29T15:35:01.839Z,100619.50
2023-03-29T15:37:29.670Z,100619.43
2023-03-29T15:39:58.040Z,100617.94
2023-03-29T15:42:26.202Z,100618.17
2023-03-29T15:44:56.319Z,100617.23
2023-03-29T15:47:24.275Z,100617.27
2023-03-29T15:49:52.103Z,100618.39
2023-03-29T15:52:19.868Z,100617.13
2023-03-29T15:54:48.251Z,100618.27
2023-03-29T15:57:17.571Z,100613.52
2023-03-29T15:59:45.479Z,100617.89
2023-03-29T16:02:23.961Z,100617.93
2023-03-29T16:04:51.837Z,100614.52
2023-03-29T16:07:20.860Z,100619.20
2023-03-29T16:09:49.154Z,100614.13
2023-03-29T16:12:17.146Z,100612.49
2023-03-29T16:14:45.076Z,100604.05
2023-03-29T16:17:14.355Z,100599.20
2023-03-29T16:19:42.322Z,100599.14
2023-03-29T16:22:10.462Z,100598.70
2023-03-29T16:24:38.325Z,100600.63
2023-03-29T16:27:06.578Z,100598.12
2023-03-29T16:29:34.681Z,100596.90
2023-03-29T16:32:04.726Z,100593.76
2023-03-29T16:34:35.915Z,100591.05
2023-03-29T16:37:04.060Z,100586.52
2023-03-29T16:39:31.760Z,100584.64
2023-03-29T16:41:59.593Z,100581.85
2023-03-29T16:44:27.919Z,100579.77
2023-03-29T16:46:58.044Z,100580.70
2023-03-29T16:49:26.043Z,100581.95
2023-03-29T16:51:54.129Z,100581.48
2023-03-29T16:54:22.180Z,100576.92
2023-03-29T16:56:50.059Z,100576.33
2023-03-29T16:59:18.184Z,100574.36
2023-03-29T17:01:46.430Z,100570.73
2023-03-29T17:04:14.652Z,100574.83
2023-03-29T17:06:42.685Z,100581.23
2023-03-29T17:09:10.474Z,100578.44
2023-03-29T17:11:38.281Z,100576.66
2023-03-29T17:14:06.216Z,100576.38
2023-03-29T17:16:34.066Z,100572.86
2023-03-29T17:19:01.909Z,100573.93
2023-03-29T17:21:29.904Z,100568.14
2023-03-29T17:23:57.839Z,100569.11
2023-03-29T17:26:26.195Z,100570.66
2023-03-29T17:28:54.145Z,100575.42
2023-03-29T17:31:22.268Z,100576.80
2023-03-29T17:33:52.138Z,100576.64
2023-03-29T17:36:24.151Z,100578.16
2023-03-29T17:38:52.174Z,100578.96
2023-03-29T17:41:21.398Z,100579.10
2023-03-29T17:43:50.928Z,100578.59
2023-03-29T17:46:22.777Z,100577.77
2023-03-29T17:48:53.647Z,100579.82
2023-03-29T17:51:23.747Z,100588.48
2023-03-29T17:53:52.551Z,100591.30
2023-03-29T17:56:21.684Z,100591.13
2023-03-29T17:58:50.405Z,100589.84
2023-03-29T18:01:22.071Z,100590.75
2023-03-29T18:03:50.478Z,100591.23
2023-03-29T18:06:20.556Z,100594.21
2023-03-29T18:08:48.470Z,100594.90
2023-03-29T18:11:25.644Z,100595.27
2023-03-29T18:13:54.284Z,100596.14
2023-03-29T18:16:22.668Z,100589.68
2023-03-29T18:18:51.105Z,100589.55
2023-03-29T18:21:18.998Z,100592.84
2023-03-29T18:23:49.168Z,100589.00
2023-03-29T18:26:17.607Z,100586.66
2023-03-29T18:28:49.404Z,100583.92
2023-03-29T18:31:19.840Z,100582.06
2023-03-29T18:33:48.065Z,100575.63
2023-03-29T18:36:16.666Z,100575.18
2023-03-29T18:38:45.154Z,100575.72
2023-03-29T18:41:14.600Z,100578.02
2023-03-29T18:43:43.218Z,100583.54
2023-03-29T18:46:11.250Z,100586.39
2023-03-29T18:48:39.204Z,100586.24
2023-03-29T18:51:08.452Z,100584.20
2023-03-29T18:53:37.744Z,100591.81
2023-03-29T18:56:06.721Z,100596.58
2023-03-29T18:58:34.842Z,100590.31
2023-03-29T19:01:04.278Z,100588.83
2023-03-29T19:03:35.568Z,100589.95
2023-03-29T19:06:04.123Z,100586.80
2023-03-29T19:08:32.929Z,100584.96
2023-03-29T19:11:03.077Z,100586.31
2023-03-29T19:13:31.395Z,100584.99
2023-03-29T19:15:59.692Z,100587.34
2023-03-29T19:18:28.044Z,100584.08
2023-03-29T19:20:56.255Z,100586.65
2023-03-29T19:23:27.107Z,100591.10
2023-03-29T19:25:57.726Z,100590.46
2023-03-29T19:28:27.350Z,100587.30
2023-03-29T19:30:56.308Z,100589.43
2023-03-29T19:33:24.098Z,100585.75
2023-03-29T19:35:52.689Z,100584.36
2023-03-29T19:38:21.103Z,100580.74
2023-03-29T19:40:50.665Z,100581.04
2023-03-29T19:43:19.214Z,100579.39
2023-03-29T19:45:48.839Z,100577.43
2023-03-29T19:50:48.205Z,100571.86
2023-03-29T19:53:16.071Z,100572.08
2023-03-29T19:55:45.312Z,100566.84
2023-03-29T19:58:13.346Z,100563.60
2023-03-29T20:00:41.832Z,100561.92
2023-03-29T20:03:10.147Z,100560.92
2023-03-29T20:05:38.945Z,100556.77
2023-03-29T20:08:07.496Z,100553.42
2023-03-29T20:10:35.991Z,100551.96
2023-03-29T20:13:05.723Z,100544.16
2023-03-29T20:15:35.015Z,100541.48
2023-03-29T20:18:03.592Z,100538.55
2023-03-29T20:20:31.923Z,100536.45
2023-03-29T20:23:04.543Z,100532.12
2023-03-29T20:25:35.645Z,100528.29
2023-03-29T20:28:04.726Z,100524.73
2023-03-29T20:30:32.531Z,100524.73
2023-03-29T20:33:00.598Z,100520.06
2023-03-29T20:35:28.451Z,100510.81
2023-03-29T20:37:56.439Z,100506.88
2023-03-29T20:40:24.783Z,100502.14
2023-03-29T20:42:54.241Z,100500.21
2023-03-29T20:45:22.123Z,100498.50
2023-03-29T20:48:02.046Z,100496.27
2023-03-29T20:50:30.039Z,100500.35
2023-03-29T20:53:02.205Z,100497.33
2023-03-29T20:55:33.255Z,100498.88
2023-03-29T20:58:02.240Z,100493.39
2023-03-29T21:00:32.522Z,100495.67
2023-03-29T21:03:00.566Z,100500.95
2023-03-29T21:05:33.135Z,100495.45
2023-03-29T21:08:01.318Z,100492.52
2023-03-29T21:10:29.633Z,100491.90
2023-03-29T21:13:00.422Z,100491.59
2023-03-29T21:15:30.651Z,100489.36
2023-03-29T21:17:58.953Z,100485.99
2023-03-29T21:20:27.576Z,100483.91
2023-03-29T21:22:55.547Z,100483.29
2023-03-29T21:25:23.377Z,100483.37
2023-03-29T21:27:51.152Z,100483.00
2023-03-29T21:30:19.027Z,100484.45
2023-03-29T21:32:46.935Z,100483.48
2023-03-29T21:35:14.764Z,100485.58
2023-03-29T21:37:42.481Z,100485.05
2023-03-29T21:40:11.294Z,100485.36
2023-03-29T21:42:39.174Z,100481.35
2023-03-29T21:45:07.573Z,100482.91
2023-03-29T21:47:35.419Z,100476.64
2023-03-29T21:50:03.465Z,100476.84
2023-03-29T21:52:31.468Z,100473.56
2023-03-29T21:55:02.232Z,100475.54
2023-03-29T21:57:30.127Z,100465.15
2023-03-29T21:59:57.951Z,100465.27
2023-03-29T22:02:25.852Z,100463.48
2023-03-29T22:04:53.686Z,100465.31
2023-03-29T22:07:26.502Z,100463.30
2023-03-29T22:09:54.756Z,100467.65
2023-03-29T22:12:22.770Z,100467.54
2023-03-29T22:14:50.486Z,100462.13
2023-03-29T22:17:18.603Z,100459.25
2023-03-29T22:19:47.601Z,100459.79
2023-03-29T22:22:15.326Z,100452.15
2023-03-29T22:24:43.612Z,100450.67
2023-03-29T22:27:11.721Z,100449.30
2023-03-29T22:29:39.595Z,100447.52
2023-03-29T22:32:07.396Z,100452.56
2023-03-29T22:34:35.299Z,100446.39
2023-03-29T22:37:03.248Z,100443.61
2023-03-29T22:39:31.084Z,100440.84
2023-03-29T22:41:58.930Z,100439.49
2023-03-29T22:44:27.068Z,100439.49
2023-03-29T22:46:55.701Z,100434.73
2023-03-29T22:49:23.635Z,100429.32
2023-03-29T22:51:51.813Z,100421.52
2023-03-29T22:54:19.515Z,100419.88
2023-03-29T22:56:47.267Z,100414.69
2023-03-29T22:59:16.103Z,100412.69
2023-03-29T23:01:44.621Z,100410.42
2023-03-29T23:04:12.593Z,100405.54
2023-03-29T23:06:40.878Z,100410.48
2023-03-29T23:09:09.524Z,100411.94
2023-03-29T23:11:37.204Z,100415.73
2023-03-29T23:14:04.889Z,100413.80
2023-03-29T23:16:32.697Z,100413.48
2023-03-29T23:19:00.864Z,100414.02
2023-03-29T23:21:28.710Z,100412.70
2023-03-29T23:23:56.482Z,100405.30
2023-03-29T23:26:24.179Z,100410.88
2023-03-29T23:28:51.903Z,100407.56
2023-03-29T23:31:19.953Z,100403.88
2023-03-29T23:33:47.691Z,100399.34
2023-03-29T23:36:18.186Z,100396.52
2023-03-29T23:38:46.868Z,100388.27
2023-03-29T23:41:17.768Z,100391.64
2023-03-29T23:43:47.432Z,100394.11
2023-03-29T23:46:17.408Z,100394.13
2023-03-29T23:48:46.372Z,100390.12
2023-03-29T23:51:14.304Z,100387.70
2023-03-29T23:53:42.016Z,100382.92
2023-03-29T23:56:09.903Z,100380.20
2023-03-29T23:58:38.193Z,100381.10
